Time;durP1;ratioP1;P1;durP2;ratioP2;P2;SDS_P1;SDS_P2;PMS_P1;PMS_P2;Temp;Humidity;BMP_temperature;BMP_pressure;BME280_temperature;BME280_humidity;BME280_pressure;Samples;Min_cycle;Max_cycle;Signal;HPM_P1;HPM_P2
2023/09/23 00:01:14;;;;;;;78.82;45.13;;;;;;;8.86;100.00;100639.50;5099029;28;20051;-72
2023/09/23 00:03:39;;;;;;;78.40;44.80;;;;;;;8.87;100.00;100648.31;5099289;28;20085;-69
2023/09/23 00:06:05;;;;;;;76.25;44.80;;;;;;;8.88;100.00;100639.50;5099006;28;20028;-72
2023/09/23 00:08:31;;;;;;;81.10;45.08;;;;;;;8.84;100.00;100642.97;5099083;28;20351;-68
2023/09/23 00:10:56;;;;;;;80.40;44.67;;;;;;;8.78;100.00;100649.09;5098976;28;20027;-68
2023/09/23 00:13:21;;;;;;;78.75;44.00;;;;;;;8.82;100.00;100655.28;5099077;28;20020;-68
2023/09/23 00:15:49;;;;;;;81.07;44.10;;;;;;;8.81;100.00;100649.13;5096300;28;20131;-70
2023/09/23 00:18:17;;;;;;;78.18;44.63;;;;;;;8.78;100.00;100651.75;5095703;28;20044;-73
2023/09/23 00:20:44;;;;;;;77.60;43.67;;;;;;;8.85;100.00;100644.75;5095645;28;20387;-71
2023/09/23 00:23:09;;;;;;;83.93;43.45;;;;;;;8.81;100.00;100643.84;5094486;28;20088;-73
2023/09/23 00:25:35;;;;;;;80.97;42.95;;;;;;;8.86;100.00;100642.13;5095714;28;20390;-75
2023/09/23 00:28:00;;;;;;;84.68;43.65;;;;;;;8.83;100.00;100644.75;5095388;28;20024;-73
2023/09/23 00:30:26;;;;;;;73.75;41.53;;;;;;;8.89;100.00;100650.06;5095305;28;20111;-74
2023/09/23 00:32:52;;;;;;;87.07;43.53;;;;;;;8.85;100.00;100655.28;5094604;28;20024;-71
2023/09/23 00:35:18;;;;;;;73.22;40.58;;;;;;;8.86;100.00;100662.34;5095633;28;20032;-72
2023/09/23 00:37:45;;;;;;;69.85;38.25;;;;;;;8.96;100.00;100658.03;5095534;28;20036;-68
2023/09/23 00:40:17;;;;;;;75.05;39.33;;;;;;;8.99;100.00;100663.34;5095471;28;20028;-67
2023/09/23 00:42:49;;;;;;;71.88;38.20;;;;;;;8.95;100.00;100667.69;5092048;28;20051;-67
2023/09/23 00:45:15;;;;;;;63.33;36.40;;;;;;;8.94;100.00;100673.84;5095168;28;20486;-67
2023/09/23 00:47:45;;;;;;;69.40;36.72;;;;;;;8.95;100.00;100680.88;5093993;28;20032;-66
2023/09/23 00:50:17;;;;;;;69.80;36.20;;;;;;;8.96;100.00;100679.13;5091776;28;20097;-67
2023/09/23 00:52:43;;;;;;;65.40;35.03;;;;;;;8.97;100.00;100673.88;5093653;28;20028;-67
2023/09/23 00:55:08;;;;;;;59.10;31.33;;;;;;;9.05;100.00;100672.16;5095085;28;20437;-67
2023/09/23 00:57:34;;;;;;;61.45;31.83;;;;;;;9.01;100.00;100673.03;5095061;28;20102;-67
2023/09/23 01:00:00;;;;;;;60.15;31.52;;;;;;;9.01;100.00;100673.03;5094830;28;20082;-68
2023/09/23 01:02:25;;;;;;;58.90;30.30;;;;;;;9.03;100.00;100670.41;5094757;28;20028;-67
2023/09/23 01:04:52;;;;;;;54.42;28.25;;;;;;;9.05;100.00;100679.19;5093604;28;20471;-67
2023/09/23 01:07:17;;;;;;;53.88;27.90;;;;;;;9.06;100.00;100680.97;5094979;28;20055;-67
2023/09/23 01:09:44;;;;;;;53.00;27.33;;;;;;;9.05;100.00;100679.19;5094530;28;20046;-67
2023/09/23 01:12:10;;;;;;;51.13;25.58;;;;;;;9.15;100.00;100688.94;5095166;28;20024;-67
2023/09/23 01:14:35;;;;;;;49.28;24.52;;;;;;;9.15;100.00;100691.56;5094777;28;20729;-67
2023/09/23 01:17:01;;;;;;;51.20;24.33;;;;;;;9.20;100.00;100688.97;5094726;28;20463;-65
2023/09/23 01:19:26;;;;;;;47.85;24.20;;;;;;;9.21;100.00;100688.09;5094466;28;20395;-67
2023/09/23 01:21:56;;;;;;;51.22;24.70;;;;;;;9.25;100.00;100695.19;5094377;28;20032;-67
2023/09/23 01:24:21;;;;;;;51.55;24.48;;;;;;;9.28;100.00;100703.09;5094410;28;20483;-66
2023/09/23 01:26:51;;;;;;;48.38;23.67;;;;;;;9.29;100.00;100701.34;5094531;28;20032;-71
2023/09/23 01:29:23;;;;;;;47.90;22.95;;;;;;;9.28;100.00;100712.78;5093175;28;20027;-75
2023/09/23 01:31:57;;;;;;;48.10;22.83;;;;;;;9.25;100.00;100705.72;5094146;28;20047;-73
2023/09/23 01:34:23;;;;;;;43.97;21.70;;;;;;;9.20;100.00;100702.16;5094389;28;20031;-74
2023/09/23 01:36:48;;;;;;;43.95;20.52;;;;;;;9.22;100.00;100708.34;5094164;28;20387;-66
2023/09/23 01:39:14;;;;;;;42.95;20.83;;;;;;;9.25;100.00;100703.09;5094335;28;20418;-73
2023/09/23 01:41:40;;;;;;;42.15;20.27;;;;;;;9.24;100.00;100703.94;5094338;28;20512;-72
2023/09/23 01:44:06;;;;;;;41.42;19.83;;;;;;;9.23;100.00;100711.00;5094260;28;20370;-73
2023/09/23 01:46:33;;;;;;;44.33;20.13;;;;;;;9.26;100.00;100712.75;5093939;28;20024;-73
2023/09/23 01:48:58;;;;;;;42.40;19.63;;;;;;;9.27;100.00;100711.00;5094191;28;20028;-73
2023/09/23 01:51:23;;;;;;;40.08;19.52;;;;;;;9.28;100.00;100715.44;5093793;28;20025;-75
2023/09/23 01:53:49;;;;;;;40.20;18.65;;;;;;;9.27;100.00;100722.44;5093771;28;20040;-72
2023/09/23 01:56:14;;;;;;;38.10;18.40;;;;;;;9.26;100.00;100712.75;5094075;28;20036;-75
2023/09/23 01:58:41;;;;;;;38.35;17.67;;;;;;;9.25;100.00;100718.91;5093860;28;20437;-74
2023/09/23 02:01:07;;;;;;;38.85;17.77;;;;;;;9.17;100.00;100721.47;5093650;28;20066;-69
2023/09/23 02:03:33;;;;;;;37.50;17.23;;;;;;;9.16;100.00;100726.72;5093791;28;20032;-71
2023/09/23 02:05:59;;;;;;;36.15;17.08;;;;;;;9.15;100.00;100723.22;5093565;28;20036;-74
2023/09/23 02:08:24;;;;;;;35.63;16.45;;;;;;;9.13;100.00;100724.06;5092124;28;20364;-71
2023/09/23 02:10:51;;;;;;;37.63;16.50;;;;;;;9.11;100.00;100731.09;5093649;28;20046;-68
2023/09/23 02:13:18;;;;;;;37.25;16.52;;;;;;;9.07;100.00;100741.63;5093400;28;20111;-68
2023/09/23 02:15:44;;;;;;;35.08;16.17;;;;;;;9.05;100.00;100734.56;5093466;28;20032;-68
2023/09/23 02:18:10;;;;;;;34.78;15.65;;;;;;;8.98;100.00;100741.53;5093658;28;20459;-69
2023/09/23 02:20:35;;;;;;;35.80;15.98;;;;;;;9.00;100.00;100742.44;5092088;28;20111;-68
2023/09/23 02:23:02;;;;;;;34.13;15.38;;;;;;;8.96;100.00;100745.91;5093505;28;20040;-68
2023/09/23 02:25:27;;;;;;;35.67;14.57;;;;;;;8.99;100.00;100738.03;5093413;28;20020;-69
2023/09/23 02:27:55;;;;;;;34.08;14.73;;;;;;;8.96;100.00;100743.28;5093190;28;20498;-69
2023/09/23 02:30:21;;;;;;;35.00;15.10;;;;;;;8.96;100.00;100742.41;5093291;28;20043;-68
2023/09/23 02:32:47;;;;;;;32.67;14.57;;;;;;;8.92;100.00;100749.38;5093302;28;20036;-70
2023/09/23 02:35:15;;;;;;;31.83;14.40;;;;;;;8.88;100.00;100753.75;5093241;28;20421;-69
2023/09/23 02:37:50;;;;;;;32.50;13.85;;;;;;;8.88;100.00;100760.75;5089622;28;20055;-68
2023/09/23 02:40:17;;;;;;;31.85;13.95;;;;;;;8.91;100.00;100768.69;5089619;28;20043;-69
2023/09/23 02:42:47;;;;;;;31.20;14.05;;;;;;;8.92;100.00;100761.69;5093076;28;20028;-68
2023/09/23 02:45:13;;;;;;;31.60;13.70;;;;;;;8.90;100.00;100769.59;5089387;28;20032;-68
2023/09/23 02:47:41;;;;;;;35.45;14.10;;;;;;;8.87;100.00;100770.44;5089138;28;20032;-68
2023/09/23 02:50:13;;;;;;;31.73;13.68;;;;;;;8.83;100.00;100778.31;5092742;28;20039;-67
2023/09/23 02:52:39;;;;;;;30.75;13.60;;;;;;;8.87;100.00;100774.84;5088624;28;20027;-67
2023/09/23 02:55:07;;;;;;;31.48;13.90;;;;;;;8.80;100.00;100783.53;5093057;28;20016;-67
2023/09/23 02:57:37;;;;;;;32.90;13.90;;;;;;;8.80;100.00;100773.88;5093033;28;20418;-67
2023/09/23 03:00:17;;;;;;;30.88;13.55;;;;;;;8.76;100.00;100787.00;5092816;28;20036;-67
2023/09/23 03:02:52;;;;;;;33.13;13.98;;;;;;;8.73;100.00;100785.22;5089320;28;20109;-67
2023/09/23 03:05:18;;;;;;;33.40;14.20;;;;;;;8.70;100.00;100780.78;5088626;28;20081;-67
2023/09/23 03:07:50;;;;;;;32.70;13.35;;;;;;;8.67;100.00;100790.44;5092917;28;20024;-67
2023/09/23 03:10:19;;;;;;;31.97;13.73;;;;;;;8.71;100.00;100790.47;5092575;28;20044;-67
2023/09/23 03:13:03;;;;;;;32.00;13.60;;;;;;;8.68;100.00;100781.66;5092702;28;20305;-67
2023/09/23 03:15:34;;;;;;;30.02;13.07;;;;;;;8.75;100.00;100785.22;5092644;28;20371;-67
2023/09/23 03:18:00;;;;;;;30.48;13.07;;;;;;;8.72;100.00;100786.97;5092674;28;20056;-67
2023/09/23 03:20:26;;;;;;;31.77;13.30;;;;;;;8.73;100.00;100783.47;5092601;28;20028;-67
2023/09/23 03:22:53;;;;;;;32.15;13.32;;;;;;;8.70;100.00;100786.06;5092826;28;20475;-67
2023/09/23 03:25:20;;;;;;;30.70;13.05;;;;;;;8.72;100.00;100792.25;5093090;28;20449;-67
2023/09/23 03:27:50;;;;;;;31.77;12.88;;;;;;;8.74;100.00;100794.91;5091355;28;20112;-67
2023/09/23 03:30:17;;;;;;;30.58;12.80;;;;;;;8.79;100.00;100797.59;5092487;28;20036;-73
2023/09/23 03:32:44;;;;;;;28.52;12.65;;;;;;;8.78;100.00;100798.44;5092616;28;20024;-70
2023/09/23 03:35:17;;;;;;;30.48;12.60;;;;;;;8.77;100.00;100804.59;5088620;28;20028;-75
2023/09/23 03:37:49;;;;;;;29.33;12.38;;;;;;;8.75;100.00;100803.69;5088787;28;20031;-73
2023/09/23 03:40:15;;;;;;;30.10;13.18;;;;;;;8.73;100.00;100809.81;5089053;28;20028;-71
2023/09/23 03:42:42;;;;;;;29.20;12.82;;;;;;;8.72;100.00;100817.69;5092690;28;20067;-72
2023/09/23 03:45:10;;;;;;;30.13;13.05;;;;;;;8.70;100.00;100815.06;5092360;28;20475;-70
2023/09/23 03:47:37;;;;;;;31.63;12.70;;;;;;;8.70;100.00;100812.41;5092314;28;20032;-70
2023/09/23 03:50:03;;;;;;;28.25;12.77;;;;;;;8.72;100.00;100821.25;5092745;28;20461;-69
2023/09/23 03:52:29;;;;;;;30.75;12.90;;;;;;;8.72;100.00;100815.06;5095709;28;20036;-72
2023/09/23 03:54:54;;;;;;;29.70;12.80;;;;;;;8.72;100.00;100821.25;5096195;28;20386;-69
2023/09/23 03:57:20;;;;;;;30.63;13.05;;;;;;;8.67;100.00;100822.06;5096250;28;20117;-68
2023/09/23 03:59:46;;;;;;;30.52;13.52;;;;;;;8.70;100.00;100822.09;5096062;28;20431;-74
2023/09/23 04:02:11;;;;;;;31.40;13.63;;;;;;;8.68;100.00;100822.06;5095946;28;20028;-72
2023/09/23 04:04:37;;;;;;;31.08;13.40;;;;;;;8.78;100.00;100830.06;5096077;28;20391;-70
2023/09/23 04:07:05;;;;;;;31.50;13.45;;;;;;;8.83;100.00;100820.47;5096184;28;20059;-72
2023/09/23 04:09:33;;;;;;;30.70;13.73;;;;;;;8.88;100.00;100830.22;5096056;28;20115;-75
2023/09/23 04:12:00;;;;;;;31.27;13.55;;;;;;;8.93;100.00;100827.63;5096200;28;20028;-73
2023/09/23 04:14:26;;;;;;;30.83;13.88;;;;;;;8.97;100.00;100824.16;5095745;28;20024;-71
2023/09/23 04:16:52;;;;;;;30.67;14.05;;;;;;;8.99;100.00;100832.06;5095946;28;20028;-73
2023/09/23 04:19:18;;;;;;;30.65;13.38;;;;;;;8.97;100.00;100834.69;5095706;28;20048;-72
2023/09/23 04:21:43;;;;;;;29.65;13.35;;;;;;;8.94;100.00;100842.56;5095637;28;20031;-70
2023/09/23 04:24:09;;;;;;;31.50;13.30;;;;;;;8.92;100.00;100841.66;5095832;28;20455;-70
2023/09/23 04:26:34;;;;;;;31.60;13.40;;;;;;;8.88;100.00;100851.31;5095728;28;20063;-72
2023/09/23 04:28:59;;;;;;;30.58;13.00;;;;;;;8.84;100.00;100851.22;5095722;28;20471;-71
2023/09/23 04:31:24;;;;;;;30.48;13.27;;;;;;;8.80;100.00;100858.22;5095359;28;20039;-67
2023/09/23 04:33:51;;;;;;;32.42;13.90;;;;;;;8.77;100.00;100865.22;5095489;28;20043;-67
2023/09/23 04:36:17;;;;;;;32.10;14.13;;;;;;;8.75;100.00;100856.41;5095378;28;20763;-67
2023/09/23 04:38:45;;;;;;;32.90;13.95;;;;;;;8.71;100.00;100863.41;5094046;28;20500;-66
2023/09/23 04:41:10;;;;;;;28.70;13.25;;;;;;;8.73;100.00;100869.56;5090384;28;20116;-67
2023/09/23 04:43:36;;;;;;;29.77;13.35;;;;;;;8.77;100.00;100881.03;5095205;28;20493;-67
2023/09/23 04:46:02;;;;;;;30.85;13.05;;;;;;;8.77;100.00;100881.03;5095078;28;20031;-66
2023/09/23 04:48:30;;;;;;;29.80;13.50;;;;;;;8.71;100.00;100880.09;5095259;28;20379;-67
2023/09/23 04:50:56;;;;;;;31.92;14.30;;;;;;;8.71;100.00;100880.09;5095163;28;20434;-67
2023/09/23 04:53:22;;;;;;;32.17;14.43;;;;;;;8.73;100.00;100883.63;5095040;28;20028;-65
2023/09/23 04:55:47;;;;;;;31.75;14.50;;;;;;;8.71;100.00;100879.22;5095268;28;20066;-66
2023/09/23 04:58:13;;;;;;;30.48;14.27;;;;;;;8.73;100.00;100882.75;5094877;28;20032;-66
2023/09/23 05:00:38;;;;;;;31.30;14.57;;;;;;;8.72;100.00;100889.78;5095066;28;20024;-65
2023/09/23 05:03:05;;;;;;;31.77;14.73;;;;;;;8.71;100.00;100884.47;5094258;28;20038;-66
2023/09/23 05:05:31;;;;;;;32.47;14.63;;;;;;;8.66;100.00;100888.78;5094706;28;20417;-67
2023/09/23 05:07:56;;;;;;;33.60;14.98;;;;;;;8.64;100.00;100888.78;5094897;28;20024;-66
2023/09/23 05:10:23;;;;;;;33.92;14.98;;;;;;;8.66;100.00;100897.56;5094552;28;20116;-66
2023/09/23 05:12:52;;;;;;;32.90;15.10;;;;;;;8.65;100.00;100901.09;5093626;28;20032;-67
2023/09/23 05:15:17;;;;;;;32.35;15.18;;;;;;;8.64;100.00;100914.25;5094849;28;20056;-67
2023/09/23 05:17:44;;;;;;;31.63;14.80;;;;;;;8.66;100.00;100916.03;5094337;28;20483;-67
2023/09/23 05:20:25;;;;;;;32.35;15.30;;;;;;;8.66;100.00;100912.50;5094279;28;20075;-67
2023/09/23 05:22:51;;;;;;;34.00;15.73;;;;;;;8.68;100.00;100923.97;5092018;28;20048;-67
2023/09/23 05:25:17;;;;;;;33.35;15.73;;;;;;;8.69;100.00;100939.81;5094865;28;20110;-67
2023/09/23 05:27:43;;;;;;;33.95;16.17;;;;;;;8.71;100.00;100931.91;5094417;28;20024;-74
2023/09/23 05:30:12;;;;;;;32.17;15.98;;;;;;;8.70;100.00;100938.06;5094150;28;20030;-69
2023/09/23 05:32:43;;;;;;;33.22;14.65;;;;;;;8.69;100.00;100953.00;5093123;28;20478;-70
2023/09/23 05:35:09;;;;;;;31.92;15.43;;;;;;;8.70;100.00;100953.88;5094264;28;20024;-70
2023/09/23 05:37:39;;;;;;;32.03;15.80;;;;;;;8.68;100.00;100952.97;5094166;28;20546;-69
2023/09/23 05:40:17;;;;;;;33.35;15.75;;;;;;;8.64;100.00;100959.94;5094532;28;20036;-71
2023/09/23 05:42:43;;;;;;;31.75;15.98;;;;;;;8.64;100.00;100962.56;5090541;28;20023;-69
2023/09/23 05:45:10;;;;;;;32.63;15.68;;;;;;;8.65;100.00;100961.72;5092781;28;20475;-69
2023/09/23 05:47:36;;;;;;;33.42;15.38;;;;;;;8.63;100.00;100966.06;5093903;28;20040;-71
2023/09/23 05:50:01;;;;;;;33.28;15.02;;;;;;;8.66;100.00;100965.22;5093960;28;20474;-70
2023/09/23 05:52:27;;;;;;;33.45;15.82;;;;;;;8.63;100.00;100976.59;5093987;28;20028;-72
2023/09/23 05:54:53;;;;;;;32.45;15.38;;;;;;;8.65;100.00;100980.16;5093902;28;20028;-70
2023/09/23 05:57:18;;;;;;;33.13;15.43;;;;;;;8.69;100.00;100981.97;5093847;28;20098;-71
2023/09/23 05:59:43;;;;;;;32.60;15.20;;;;;;;8.78;100.00;100980.31;5093748;28;20028;-73
2023/09/23 06:02:09;;;;;;;34.58;15.68;;;;;;;8.86;100.00;100986.59;5093710;28;20028;-72
2023/09/23 06:04:35;;;;;;;33.20;15.35;;;;;;;8.89;100.00;100999.81;5094086;28;20051;-71
2023/09/23 06:07:01;;;;;;;35.58;16.27;;;;;;;8.86;100.00;100997.13;5093665;28;20035;-73
2023/09/23 06:09:26;;;;;;;32.88;15.23;;;;;;;8.87;100.00;100998.91;5093539;28;20039;-69
2023/09/23 06:11:51;;;;;;;33.65;15.70;;;;;;;8.86;100.00;101016.47;5093657;28;20078;-72
2023/09/23 06:14:17;;;;;;;33.47;16.13;;;;;;;8.87;100.00;101014.75;5092637;28;20039;-71
2023/09/23 06:16:42;;;;;;;34.28;15.80;;;;;;;8.92;100.00;101020.94;5093633;28;20130;-73
2023/09/23 06:19:07;;;;;;;33.97;15.82;;;;;;;8.94;100.00;101026.22;5093293;28;20077;-69
2023/09/23 06:21:33;;;;;;;32.30;15.23;;;;;;;9.01;100.00;101030.72;5093339;28;20124;-71
2023/09/23 06:23:58;;;;;;;32.80;15.65;;;;;;;9.02;100.00;101037.78;5093762;28;20060;-74
2023/09/23 06:26:24;;;;;;;33.08;15.70;;;;;;;9.06;100.00;101039.59;5092075;28;20471;-73
2023/09/23 06:28:49;;;;;;;31.90;15.50;;;;;;;9.09;100.00;101037.00;5093326;28;20054;-73
2023/09/23 06:31:14;;;;;;;35.17;16.50;;;;;;;9.15;100.00;101045.00;5093573;28;20038;-73
2023/09/23 06:33:40;;;;;;;31.92;16.08;;;;;;;9.22;100.00;101052.13;5093180;28;20035;-72
2023/09/23 06:36:05;;;;;;;32.65;16.02;;;;;;;9.31;100.00;101048.72;5093151;28;20123;-72
2023/09/23 06:38:32;;;;;;;32.95;16.88;;;;;;;9.38;100.00;101047.06;5093305;28;20035;-73
2023/09/23 06:40:58;;;;;;;34.40;16.48;;;;;;;9.34;100.00;101056.66;5093044;28;20085;-68
2023/09/23 06:43:23;;;;;;;31.48;15.40;;;;;;;9.36;100.00;101057.59;5091839;28;20024;-73
2023/09/23 06:45:56;;;;;;;34.65;15.75;;;;;;;9.36;100.00;101070.78;5093265;28;20028;-73
2023/09/23 06:48:22;;;;;;;31.70;16.02;;;;;;;9.36;100.00;101067.25;5092975;28;20032;-72
2023/09/23 06:50:58;;;;;;;32.45;16.02;;;;;;;9.34;100.00;101069.84;5092863;28;20093;-72
2023/09/23 06:53:24;;;;;;;35.38;16.33;;;;;;;9.37;100.00;101072.53;5093245;28;20317;-73
2023/09/23 06:55:49;;;;;;;34.05;16.05;;;;;;;9.40;100.00;101077.84;5092684;28;20035;-69
2023/09/23 06:58:14;;;;;;;32.20;15.95;;;;;;;9.46;100.00;101084.09;5092802;28;20054;-70
2023/09/23 07:00:40;;;;;;;32.47;15.80;;;;;;;9.52;100.00;101082.41;5092934;28;20375;-73
2023/09/23 07:03:07;;;;;;;33.78;16.80;;;;;;;9.55;100.00;101086.81;5092703;28;20589;-73
2023/09/23 07:05:34;;;;;;;33.75;16.88;;;;;;;9.55;100.00;101089.47;5092686;28;20032;-74
2023/09/23 07:07:59;;;;;;;33.85;16.38;;;;;;;9.62;100.00;101087.81;5093119;28;20028;-70
2023/09/23 07:10:25;;;;;;;32.63;16.42;;;;;;;9.63;100.00;101087.81;5092462;28;20039;-74
2023/09/23 07:12:50;;;;;;;33.47;17.73;;;;;;;9.66;100.00;101098.41;5092701;28;20494;-73
2023/09/23 07:15:15;;;;;;;35.17;18.20;;;;;;;9.74;100.00;101096.75;5092950;28;20052;-73
2023/09/23 07:17:41;;;;;;;33.13;18.52;;;;;;;9.82;100.00;101106.53;5092489;28;20082;-73
2023/09/23 07:20:07;;;;;;;34.40;18.77;;;;;;;9.82;100.00;101106.53;5092489;28;20129;-71
2023/09/23 07:22:32;;;;;;;34.00;18.83;;;;;;;9.87;100.00;101126.84;5092759;28;20054;-71
2023/09/23 07:24:57;;;;;;;33.70;18.48;;;;;;;9.94;100.00;101130.41;5092123;28;20119;-75
2023/09/23 07:27:24;;;;;;;34.08;18.27;;;;;;;9.94;100.00;101120.72;5096705;28;20028;-71
2023/09/23 07:29:49;;;;;;;32.65;17.58;;;;;;;10.00;100.00;101122.56;5095374;28;20505;-72
2023/09/23 07:32:15;;;;;;;33.78;17.42;;;;;;;10.04;100.00;101123.50;5096601;28;20044;-74
2023/09/23 07:34:40;;;;;;;31.17;17.08;;;;;;;10.06;100.00;101141.13;5096752;28;20465;-69
2023/09/23 07:37:06;;;;;;;32.40;17.52;;;;;;;10.12;100.00;101141.19;5096868;28;20036;-69
2023/09/23 07:39:32;;;;;;;33.40;17.58;;;;;;;10.12;100.00;101141.19;5096412;28;20502;-74
2023/09/23 07:41:57;;;;;;;31.52;17.55;;;;;;;10.18;100.00;101155.31;5096791;28;20028;-73
2023/09/23 07:44:23;;;;;;;33.28;17.90;;;;;;;10.21;100.00;101158.03;5095003;28;20078;-72
2023/09/23 07:46:48;;;;;;;33.42;17.42;;;;;;;10.28;100.00;101160.75;5096545;28;20036;-73
2023/09/23 07:49:13;;;;;;;31.40;17.35;;;;;;;10.29;100.00;101162.53;5096485;28;20023;-73
2023/09/23 07:51:39;;;;;;;30.90;17.15;;;;;;;10.35;100.00;101164.34;5096073;28;20469;-73
2023/09/23 07:54:05;;;;;;;32.67;17.60;;;;;;;10.42;100.00;101167.97;5096316;28;20471;-73
2023/09/23 07:56:31;;;;;;;31.60;16.80;;;;;;;10.58;100.00;101164.59;5093158;28;20111;-72
2023/09/23 07:58:56;;;;;;;32.97;17.20;;;;;;;10.84;100.00;101176.28;5095065;28;20067;-73
2023/09/23 08:01:22;;;;;;;31.58;17.27;;;;;;;10.74;100.00;101177.94;5085863;28;20056;-69
2023/09/23 08:03:47;;;;;;;30.92;16.58;;;;;;;10.97;100.00;101171.09;5091290;28;20067;-71
2023/09/23 08:06:13;;;;;;;29.17;16.63;;;;;;;11.04;100.00;101182.63;5095853;28;20024;-66
2023/09/23 08:08:38;;;;;;;30.10;16.55;;;;;;;11.10;100.00;101187.94;5095701;28;20028;-67
2023/09/23 08:11:03;;;;;;;27.98;15.05;;;;;;;11.06;100.00;101190.56;5094569;28;20085;-66
2023/09/23 08:13:29;;;;;;;29.75;15.95;;;;;;;11.23;100.00;101196.88;5095708;28;20077;-67
2023/09/23 08:15:58;;;;;;;29.63;15.18;;;;;;;11.37;100.00;101199.59;5091737;28;20115;-67
2023/09/23 08:18:23;;;;;;;27.70;14.20;;;;;;;11.38;100.00;101206.66;5089952;28;20075;-67
2023/09/23 08:20:56;;;;;;;26.45;14.07;;;;;;;11.44;100.00;101216.41;5095800;28;20459;-70
2023/09/23 08:23:21;;;;;;;;;;;;;;;11.46;100.00;101212.91;5095792;28;20494;-69
2023/09/23 08:25:46;;;;;;;28.25;13.60;;;;;;;11.46;100.00;101219.94;5094334;28;20008;-69
2023/09/23 08:28:13;;;;;;;27.55;13.82;;;;;;;11.49;100.00;101217.34;5095705;28;20028;-68
2023/09/23 08:30:40;;;;;;;25.90;12.70;;;;;;;11.52;100.00;101218.25;5095222;28;20036;-66
2023/09/23 08:33:05;;;;;;;26.13;12.50;;;;;;;11.66;100.00;101225.38;5095399;28;20432;-68
2023/09/23 08:35:31;;;;;;;25.13;11.77;;;;;;;11.73;100.00;101224.53;5095268;28;20031;-68
2023/09/23 08:37:56;;;;;;;23.67;11.32;;;;;;;11.79;100.00;101234.28;5094195;28;20024;-66
2023/09/23 08:40:22;;;;;;;24.20;10.60;;;;;;;12.03;100.00;101228.28;5095410;28;20020;-67
2023/09/23 08:42:54;;;;;;;22.35;9.68;;;;;;;12.10;100.00;101239.75;5095165;28;20036;-67
2023/09/23 08:45:24;;;;;;;22.40;9.15;;;;;;;12.04;100.00;101251.22;5091536;28;20123;-67
2023/09/23 08:47:50;;;;;;;21.50;8.88;;;;;;;12.35;100.00;101252.25;5095239;28;20070;-68
2023/09/23 08:50:17;;;;;;;22.48;8.13;;;;;;;12.62;100.00;101254.97;5087613;28;20028;-66
2023/09/23 08:52:43;;;;;;;21.30;7.80;;;;;;;12.92;100.00;101254.16;5084450;28;20063;-65
2023/09/23 08:55:11;;;;;;;18.50;6.78;;;;;;;13.30;100.00;101265.66;5084919;28;20503;-65
2023/09/23 08:57:37;;;;;;;18.33;6.13;;;;;;;13.25;100.00;101271.84;5093721;28;20360;-66
2023/09/23 09:00:07;;;;;;;18.98;5.93;;;;;;;13.01;100.00;101275.38;5094639;28;20115;-66
2023/09/23 09:02:33;;;;;;;19.23;5.95;;;;;;;13.07;100.00;101277.16;5094849;28;20028;-67
2023/09/23 09:04:58;;;;;;;19.60;5.40;;;;;;;13.06;100.00;101270.97;5094690;28;20544;-66
2023/09/23 09:07:34;;;;;;;18.35;5.30;;;;;;;13.28;100.00;101278.03;5094444;28;20517;-69
2023/09/23 09:10:00;;;;;;;17.45;5.10;;;;;;;13.39;100.00;101286.94;5094750;28;20047;-67
2023/09/23 09:12:25;;;;;;;18.08;4.70;;;;;;;13.24;100.00;101280.69;5094767;28;20475;-66
2023/09/23 09:14:51;;;;;;;20.13;5.00;;;;;;;13.31;100.00;101294.88;5094790;28;20039;-66
2023/09/23 09:17:17;;;;;;;18.95;5.05;;;;;;;13.48;100.00;101291.34;5094560;28;20540;-67
2023/09/23 09:19:42;;;;;;;17.55;4.78;;;;;;;13.65;100.00;101291.34;5094266;28;20044;-68
2023/09/23 09:22:08;;;;;;;17.23;4.60;;;;;;;13.59;100.00;101302.88;5092101;28;20032;-69
2023/09/23 09:24:34;;;;;;;16.38;4.55;;;;;;;13.47;100.00;101297.53;5094787;28;20028;-69
2023/09/23 09:26:59;;;;;;;18.40;4.88;;;;;;;13.44;100.00;101306.41;5094183;28;20510;-66
2023/09/23 09:29:25;;;;;;;18.30;4.32;;;;;;;13.50;100.00;101316.13;5094415;28;20036;-69
2023/09/23 09:31:51;;;;;;;15.77;4.40;;;;;;;13.58;100.00;101307.28;5094173;28;20028;-68
2023/09/23 09:34:24;;;;;;;16.40;4.35;;;;;;;13.60;100.00;101297.53;5094029;28;20020;-68
2023/09/23 09:36:54;;;;;;;;;;;;;;;13.49;100.00;101294.00;5094543;28;20016;-69
2023/09/23 09:39:25;;;;;;;15.27;4.00;;;;;;;13.04;100.00;101293.06;5094161;28;19916;-70
2023/09/23 09:41:51;;;;;;;17.37;4.70;;;;;;;13.01;100.00;101293.94;5094161;28;20028;-70
2023/09/23 09:44:21;;;;;;;16.92;4.40;;;;;;;13.17;100.00;101300.16;5093744;28;20536;-71
2023/09/23 09:46:48;;;;;;;18.73;4.70;;;;;;;13.48;100.00;101307.28;5093940;28;20031;-70
2023/09/23 09:49:16;;;;;;;14.23;4.13;;;;;;;13.58;100.00;101307.28;5094367;28;20394;-70
2023/09/23 09:51:42;;;;;;;17.77;4.18;;;;;;;13.55;100.00;101304.63;5093993;28;20063;-69
2023/09/23 09:54:11;;;;;;;15.70;4.30;;;;;;;13.59;100.00;101282.50;5092545;28;20387;-72
2023/09/23 09:56:41;;;;;;;17.17;3.97;;;;;;;13.71;100.00;101301.97;5090204;28;20035;-70
2023/09/23 09:59:06;;;;;;;14.60;3.75;;;;;;;13.76;100.00;101303.72;5089849;28;20028;-71
2023/09/23 10:01:33;;;;;;;16.65;3.90;;;;;;;13.87;100.00;101306.34;5093930;28;20119;-71
2023/09/23 10:03:59;;;;;;;17.20;4.00;;;;;;;14.16;100.00;101309.84;5093874;28;20482;-71
2023/09/23 10:06:26;;;;;;;15.75;3.88;;;;;;;14.29;100.00;101307.13;5093947;28;20082;-71
2023/09/23 10:08:53;;;;;;;15.75;3.70;;;;;;;14.30;100.00;101305.38;5093717;28;20364;-71
2023/09/23 10:11:31;;;;;;;15.20;4.00;;;;;;;14.52;100.00;101297.25;5093730;28;20036;-71
2023/09/23 10:13:56;;;;;;;14.85;3.70;;;;;;;14.84;100.00;101302.47;5093672;28;20129;-71
2023/09/23 10:16:27;;;;;;;14.55;4.10;;;;;;;15.01;100.00;101302.34;5090108;28;20111;-71
2023/09/23 10:18:56;;;;;;;13.85;3.90;;;;;;;15.90;100.00;101298.09;5093082;28;20039;-69
2023/09/23 10:21:27;;;;;;;17.30;4.20;;;;;;;16.11;100.00;101290.75;5080155;28;20476;-74
2023/09/23 10:23:55;;;;;;;15.93;4.00;;;;;;;15.94;100.00;101294.47;5084869;28;20030;-74
2023/09/23 10:26:23;;;;;;;17.63;4.30;;;;;;;15.46;100.00;101305.53;5086172;28;20021;-68
2023/09/23 10:29:14;;;;;;;16.58;4.55;;;;;;;15.32;100.00;101310.13;5093095;28;20050;-67
2023/09/23 10:31:40;;;;;;;17.73;4.80;;;;;;;15.01;100.00;101301.47;5087565;28;20524;-68
2023/09/23 10:34:07;;;;;;;16.73;4.80;;;;;;;14.96;100.00;101314.81;5092245;28;20421;-67
2023/09/23 10:36:35;;;;;;;18.80;4.90;;;;;;;14.70;100.00;101307.84;5089285;28;20036;-67
2023/09/23 10:39:06;;;;;;;16.52;4.82;;;;;;;14.58;100.00;101318.53;5088971;28;20425;-67
2023/09/23 10:41:35;;;;;;;17.80;5.05;;;;;;;14.61;100.00;101326.50;5089397;28;20122;-68
2023/09/23 10:44:04;;;;;;;17.85;5.50;;;;;;;14.85;100.00;101314.88;5088836;28;20040;-67
2023/09/23 10:46:30;;;;;;;16.80;5.10;;;;;;;15.27;100.00;101327.91;5088744;28;20038;-67
2023/09/23 10:48:56;;;;;;;15.68;5.30;;;;;;;15.56;100.00;101327.66;5093248;28;20446;-68
2023/09/23 10:51:22;;;;;;;16.45;5.10;;;;;;;15.51;100.00;101337.50;5092673;28;20131;-68
2023/09/23 10:53:50;;;;;;;15.65;5.10;;;;;;;15.43;100.00;101342.88;5091786;28;20058;-67
2023/09/23 10:56:19;;;;;;;15.20;5.45;;;;;;;15.25;100.00;101335.91;5083453;28;20479;-68
2023/09/23 10:58:44;;;;;;;14.93;5.20;;;;;;;15.11;100.00;101337.78;5092721;28;20035;-68
2023/09/23 11:01:10;;;;;;;18.02;5.50;;;;;;;14.97;100.00;101352.06;5090630;28;20028;-67
2023/09/23 11:03:42;;;;;;;16.52;5.70;;;;;;;14.86;100.00;101348.56;5092489;28;20437;-67
2023/09/23 11:06:08;;;;;;;;;;;;;;;15.05;100.00;101359.13;5089879;28;20032;-67
2023/09/23 11:08:34;;;;;;;17.95;6.10;;;;;;;15.21;100.00;101351.94;5084475;28;20355;-67